Hibbing, MN (55746)

1:09 AM CST on December 10, 2016 (GMT -0600)
Chisholm-hibbing | | Change Station

Elev 1352 ft 47.39 °N, 92.84 °W | Updated 16 minutes ago

Overcast
Overcast
1 °F
Feels Like -14 °F
N
9
Wind Variable Wind from NNW

Today
High -- | Low -- °F
--% Chance of Precip.
Yesterday
High -- | Low -- °F
Precip. -- in
Pressure 30.53 in
Visibility 10.0 miles
Clouds Overcast 2400 ft
Windchill -14 °F
Dew Point -5 °F
Humidity 75%
Rainfall 0.00 in
Snow Depth Not available.
7:48 AM 4:20 PM
Waxing Gibbous, 81% visible
METAR KHIB 100653Z AUTO 34008KT 10SM OVC024 M17/M21 A3041 RMK AO2 SLP338 T11721206
Pressure 30.53 in
Visibility 10.0 miles
Clouds Overcast 2400 ft
Windchill -14 °F
Dew Point -5 °F
Humidity 75%
Rainfall 0.00 in
Snow Depth Not available.
7:48 AM 4:20 PM
Waxing Gibbous, 81% visible
METAR KHIB 100653Z AUTO 34008KT 10SM OVC024 M17/M21 A3041 RMK AO2 SLP338 T11721206

10-Day Weather Forecast

Almanac

Astronomy

Dec. 10, 2016 Rise Set
Actual Time
Civil Twilight
Nautical Twilight
Astronomical Twilight
Moon
Length of Visible Light
Length of Day
Tomorrow will be .
, % of the Moon is Illuminated

Today's Extremes

State Highs State Lows

Community

WunderPhotos

Upload Photos

1,956,527 photos uploaded!

WunderBlog® & News

Nearby

Air Quality

  Air Quality AQ Index Pollutant
Not available.

Snow Depth

Station Depth Elevation

Earthquake Activity

City Distance Mag. Time & Date
Minimum magnitude displayed is 2.5.

Coastal Water Temperatures

Place Temperature

Stations

Nearby Weather Stations

Station Location Temp. Windchill Dew Point Humidity Wind Precip. Elev Updated Type
                   

Watches & Warnings

There are currently no watches in effect.